Latest Weather Observations for Point Stuart

IDD60801

Issued at 5:01 pm CST Monday 27 June 2016 (issued every 30 minutes, with the page automatically refreshed every 10 minutes)

About weather observations | Map of weather stations | Latest weather observations for NT | Other Formats
Station Details ID: 014254 Name: POINT STUART Lat: -12.24 Lon: 131.88 Height: 1.0 m
Data from the previous 72 hours. | See also: Recent months at Point Stuart
Date/Time
CST
Temp
°C
App
Temp
°C
Dew
Point
°C
Rel
Hum
%
Delta-T
°C
Wind Press
QNH
hPa
Press
MSL
hPa
Rain since
9am
mm
Dir  Spd
km/h
Gust
km/h
Spd
kts
Gust
kts
27/05:00pm 30.9 34.2 22.5 61 5.7 N 9 13 5 7 1010.1 - 0.0
27/04:30pm 31.2 34.7 22.8 61 5.8 N 9 15 5 8 1009.8 - 0.0
27/04:00pm 31.5 35.2 23.3 61 5.7 N 9 15 5 8 1009.8 - 0.0
27/03:30pm 31.2 34.0 23.0 61 5.6 N 13 20 7 11 1009.8 - 0.0
27/03:00pm 31.5 34.1 23.3 61 5.7 NNE 15 20 8 11 1009.9 1009.9 0.0
27/02:30pm 31.3 34.5 23.7 64 5.3 NNE 13 20 7 11 1010.2 - 0.0
27/02:00pm 31.4 34.6 24.3 66 5.0 NNE 15 24 8 13 1010.7 - 0.0
27/01:30pm 31.2 34.0 24.3 66 4.8 NE 17 24 9 13 1011.2 - 0.0
27/01:00pm 31.2 34.5 25.1 70 4.3 NE 17 22 9 12 1011.7 - 0.0
27/12:30pm 30.6 34.0 25.2 73 3.8 NE 17 22 9 12 1012.3 - 0.0
27/12:00pm 29.7 32.8 25.4 78 3.0 NE 19 24 10 13 1012.8 1012.8 0.0
27/11:30am 29.2 32.6 25.8 82 2.4 ENE 19 26 10 14 1013.2 - 0.0
27/11:00am 28.7 32.1 26.1 86 1.8 ENE 20 28 11 15 1013.5 - 0.0
27/10:30am 28.6 32.5 26.6 89 1.4 ENE 19 26 10 14 1013.5 - 0.0
27/10:00am 27.9 32.6 26.7 93 0.9 ENE 15 20 8 11 1013.6 - 0.0
27/09:30am 27.2 31.8 26.5 96 0.5 ENE 15 20 8 11 1013.7 - 0.0
27/09:00am 26.3 31.4 26.1 99 0.1 E 11 15 6 8 1013.7 1013.7 0.0
27/08:30am 24.6 29.1 24.6 100 0.0 ESE 9 13 5 7 1013.5 - 0.0
27/08:00am 23.4 27.8 23.4 100 0.0 ESE 6 7 3 4 1013.3 - 0.0
27/07:30am 22.3 25.9 22.3 100 0.0 ESE 7 11 4 6 1012.7 - 0.0
27/07:00am 22.2 25.3 22.2 100 0.0 SE 9 11 5 6 1012.5 - 0.0
27/06:30am 22.2 26.9 22.0 99 0.1 CALM 0 0 0 0 1012.3 - 0.0
27/06:00am 22.0 25.3 21.5 97 0.3 SSE 6 7 3 4 1012.0 1012.0 0.0
27/05:30am 21.8 24.5 21.3 97 0.3 S 9 11 5 6 1011.8 - 0.0
27/05:00am 21.8 23.9 21.0 95 0.5 S 11 13 6 7 1011.6 - 0.0
27/04:30am 22.0 24.1 21.0 94 0.7 S 11 13 6 7 1011.4 - 0.0
27/04:00am 22.3 24.4 20.9 92 0.9 S 11 13 6 7 1011.2 - 0.0
27/03:30am 23.1 26.4 21.5 91 1.1 ENE 6 7 3 4 1011.0 - 0.0
27/03:00am 23.8 27.3 22.2 91 1.1 NE 7 9 4 5 1011.2 1011.2 0.0
27/02:30am 23.8 27.4 22.1 90 1.1 NE 6 7 3 4 1011.4 - 0.0
27/02:00am 24.0 27.5 22.1 89 1.3 NNE 7 11 4 6 1011.6 - 0.0
27/01:30am 24.2 27.7 21.9 87 1.5 NNE 6 9 3 5 1011.8 - 0.0
27/01:00am 24.8 28.5 22.5 87 1.5 N 7 9 4 5 1012.0 - 0.0
27/12:30am 25.0 28.7 22.5 86 1.7 NNE 7 9 4 5 1012.0 - 0.0
27/12:00am 24.7 28.1 22.0 85 1.8 NNE 7 11 4 6 1012.2 1012.2 0.0
 
Date/Time
CST
Temp
°C
App
Temp
°C
Dew
Point
°C
Rel
Hum
%
Delta-T
°C
Wind Press
QNH
hPa
Press
MSL
hPa
Rain since
9am
mm
Dir  Spd
km/h
Gust
km/h
Spd
kts
Gust
kts
26/11:30pm 23.3 25.6 19.9 81 2.2 NNE 7 9 4 5 1012.3 - 0.0
26/11:00pm 24.2 27.8 20.5 80 2.4 S 2 7 1 4 1012.4 - 0.0
26/10:30pm 24.2 26.7 19.9 77 2.8 S 6 7 3 4 1012.4 - 0.0
26/10:00pm 24.0 26.1 19.3 75 3.0 S 7 7 4 4 1012.2 - 0.0
26/09:30pm 24.2 27.5 19.1 73 3.3 CALM 0 0 0 0 1012.0 - 0.0
26/09:00pm 24.9 28.4 19.5 72 3.5 CALM 0 0 0 0 1011.9 1011.9 0.0
26/08:30pm 25.5 27.6 19.4 69 3.9 SSW 7 9 4 5 1011.6 - 0.0
26/08:00pm 25.8 27.8 19.2 67 4.2 SW 7 11 4 6 1011.5 - 0.0
26/07:30pm 26.8 30.4 19.7 65 4.6 CALM 0 0 0 0 1010.9 - 0.0
26/07:00pm 27.4 30.1 19.5 62 5.1 NNE 4 11 2 6 1010.7 - 0.0
26/06:30pm 28.5 31.1 20.0 60 5.6 N 6 9 3 5 1010.4 - 0.0
26/06:00pm 29.6 31.9 19.9 56 6.4 NNE 7 11 4 6 1010.1 1010.1 0.0
26/05:30pm 30.6 32.7 20.2 53 6.9 NNE 9 15 5 8 1009.9 - 0.0
26/05:00pm 31.1 32.4 20.1 52 7.3 NNE 13 19 7 10 1009.7 - 0.0
26/04:30pm 31.5 32.9 20.4 51 7.4 NNE 13 17 7 9 1009.4 - 0.0
26/04:00pm 31.8 33.9 21.0 52 7.2 NNE 11 19 6 10 1009.3 - 0.0
26/03:30pm 31.9 33.7 21.1 52 7.2 NNE 13 20 7 11 1009.5 - 0.0
26/03:00pm 32.1 34.1 21.6 53 7.1 NNE 13 20 7 11 1009.7 1009.7 0.0
26/02:30pm 31.9 33.8 22.0 55 6.7 NNE 15 20 8 11 1010.2 - 0.0
26/02:00pm 31.7 33.8 22.4 58 6.3 NNE 15 24 8 13 1010.6 - 0.0
26/01:30pm 31.3 33.3 22.3 58 6.1 NE 15 22 8 12 1011.1 - 0.0
26/01:00pm 30.9 32.9 22.2 59 5.9 NE 15 20 8 11 1011.7 - 0.0
26/12:30pm 30.2 31.4 22.1 62 5.5 ENE 19 24 10 13 1012.2 - 0.0
26/12:00pm 29.5 31.9 22.2 65 4.9 ENE 13 22 7 12 1012.8 1012.8 0.0
26/11:30am 29.3 31.0 22.3 66 4.7 E 17 24 9 13 1013.2 - 0.0
26/11:00am 28.8 30.0 22.5 68 4.3 E 20 28 11 15 1013.5 - 0.0
26/10:30am 28.4 30.0 22.9 72 3.7 E 19 28 10 15 1014.0 - 0.0
26/10:00am 27.6 29.9 23.4 78 2.9 ESE 17 22 9 12 1014.1 - 0.0
26/09:30am 26.5 29.1 24.0 86 1.7 ESE 17 24 9 13 1014.1 - 0.0
26/09:00am 25.2 28.3 24.2 94 0.7 E 15 20 8 11 1013.8 1013.8 0.0
26/08:30am 24.0 28.1 24.0 100 0.0 ESE 9 13 5 7 1013.5 - 0.0
26/08:00am 22.2 27.0 22.2 100 0.0 CALM 0 0 0 0 1013.3 - 0.0
26/07:30am 21.3 24.4 21.0 98 0.2 S 6 7 3 4 1013.1 - 0.0
26/07:00am 20.8 22.9 20.1 96 0.4 S 9 11 5 6 1012.8 - 0.0
26/06:30am 22.0 26.4 21.3 96 0.5 CALM 0 0 0 0 1012.2 - 0.0
26/06:00am 22.7 26.3 22.0 96 0.5 ESE 6 7 3 4 1011.9 1011.9 0.0
26/05:30am 22.9 26.9 22.1 95 0.5 SE 4 7 2 4 1011.3 - 0.0
26/05:00am 23.2 27.0 22.4 95 0.5 SE 6 7 3 4 1011.0 - 0.0
26/04:30am 23.4 27.0 22.4 94 0.7 SE 7 9 4 5 1010.9 - 0.0
26/04:00am 23.3 28.0 21.9 92 0.9 CALM 0 0 0 0 1010.9 - 0.0
26/03:30am 23.1 27.5 21.4 90 1.1 CALM 0 0 0 0 1010.9 - 0.0
26/03:00am 23.4 27.9 21.5 89 1.3 CALM 0 0 0 0 1011.1 1011.1 0.0
26/02:30am 24.1 28.6 22.2 89 1.3 ESE 2 6 1 3 1011.3 - 0.0
26/02:00am 24.3 28.4 22.2 88 1.4 SE 4 7 2 4 1011.4 - 0.0
26/01:30am 24.1 28.3 21.8 87 1.5 SSE 2 6 1 3 1011.6 - 0.0
26/01:00am 24.1 27.2 21.4 85 1.8 S 7 9 4 5 1011.7 - 0.0
26/12:30am 24.5 29.0 21.6 84 1.9 CALM 0 0 0 0 1011.8 - 0.0
26/12:00am 25.2 30.0 22.1 83 2.1 CALM 0 0 0 0 1011.8 1011.8 0.0
 
Date/Time
CST
Temp
°C
App
Temp
°C
Dew
Point
°C
Rel
Hum
%
Delta-T
°C
Wind Press
QNH
hPa
Press
MSL
hPa
Rain since
9am
mm
Dir  Spd
km/h
Gust
km/h
Spd
kts
Gust
kts
25/11:30pm 25.5 30.4 22.4 83 2.1 CALM 0 0 0 0 1011.8 - 0.0
25/11:00pm 25.6 30.5 22.3 82 2.2 CALM 0 0 0 0 1011.8 - 0.0
25/10:30pm 25.1 29.6 21.6 81 2.3 CALM 0 0 0 0 1011.8 - 0.0
25/10:00pm 25.3 29.7 21.4 79 2.6 CALM 0 7 0 4 1011.9 - 0.0
25/09:30pm 25.6 30.0 21.3 77 2.8 CALM 0 0 0 0 1011.8 - 0.0
25/09:00pm 26.0 30.3 21.2 75 3.2 CALM 0 0 0 0 1011.8 1011.8 0.0
25/08:30pm 26.4 30.6 20.9 72 3.6 CALM 0 0 0 0 1011.5 - 0.0
25/08:00pm 26.9 31.1 21.0 70 3.9 CALM 0 6 0 3 1011.2 - 0.0
25/07:30pm 27.9 31.5 21.2 67 4.5 NNW 4 6 2 3 1010.9 - 0.0
25/07:00pm 28.5 31.9 21.0 64 5.0 N 4 7 2 4 1010.6 - 0.0
25/06:30pm 29.7 33.4 21.4 61 5.6 NNW 4 7 2 4 1010.4 - 0.0
25/06:00pm 30.8 34.2 21.6 58 6.2 NNW 6 9 3 5 1010.2 1010.2 0.0
25/05:30pm 31.4 34.6 21.3 55 6.8 N 6 9 3 5 1009.9 - 0.0
25/05:00pm 32.4 35.4 21.3 52 7.5 N 7 13 4 7 1009.6 - 0.0
25/04:30pm 32.5 35.0 21.0 50 7.7 NNE 9 13 5 7 1009.4 - 0.0
25/04:00pm 32.4 34.7 21.3 52 7.5 NNE 11 19 6 10 1009.3 - 0.0
25/03:30pm 32.5 34.8 22.0 54 7.1 NNE 13 17 7 9 1009.6 - 0.0
25/03:00pm 32.4 35.3 22.5 56 6.8 NNE 11 22 6 12 1009.9 1009.9 0.0
25/02:30pm 32.3 35.7 22.7 57 6.6 N 9 17 5 9 1010.1 - 0.0
25/02:00pm 32.6 35.6 23.3 58 6.4 NNE 13 20 7 11 1010.6 - 0.0
25/01:30pm 31.9 33.9 22.9 59 6.2 NE 17 26 9 14 1011.0 - 0.0
25/01:00pm 31.3 33.3 22.9 61 5.8 NE 17 24 9 13 1011.4 - 0.0
25/12:30pm 31.3 33.6 23.4 63 5.5 ENE 17 24 9 13 1011.9 - 0.0
25/12:00pm 30.8 32.7 23.5 65 5.0 ENE 19 24 10 13 1012.2 1012.2 0.0
25/11:30am 30.6 32.7 23.8 67 4.7 E 19 28 10 15 1012.5 - 0.0
25/11:00am 30.5 32.9 24.6 70 4.1 E 20 30 11 16 1012.7 - 0.0
25/10:30am 29.7 32.4 24.8 75 3.4 ESE 19 28 10 15 1012.9 - 0.0
25/10:00am 28.6 31.8 25.6 84 2.1 SE 19 26 10 14 1013.1 - 0.0
25/09:30am 27.0 31.4 25.6 92 1.0 SE 13 20 7 11 1013.2 - 0.0
25/09:00am 26.4 30.9 26.4 100 0.0 SE 15 20 8 11 1013.3 1013.3 0.0
25/08:30am 25.2 30.1 25.2 100 0.0 SE 9 13 5 7 1013.0 - 0.0
25/08:00am 23.8 28.2 23.8 100 0.0 SE 7 11 4 6 1012.8 - 0.0
25/07:30am 22.9 26.8 22.9 100 0.0 ESE 7 9 4 5 1012.5 - 0.0
25/07:00am 22.8 26.8 22.8 100 0.0 ESE 6 9 3 5 1012.1 - 0.0
25/06:30am 23.2 28.6 23.2 100 0.0 CALM 0 0 0 0 1011.9 - 0.0
25/06:00am 23.3 28.7 23.3 100 0.0 CALM 0 0 0 0 1011.5 1011.5 0.0
25/05:30am 23.6 29.2 23.6 100 0.0 CALM 0 0 0 0 1011.4 - 0.0
25/05:00am 23.6 29.2 23.6 100 0.0 CALM 0 4 0 2 1011.3 - 0.0
25/04:30am 23.4 27.6 23.4 100 0.0 S 7 9 4 5 1011.2 - 0.0
25/04:00am 23.4 28.0 23.2 99 0.1 SSW 4 7 2 4 1011.1 - 0.0
25/03:30am 23.4 27.5 23.2 99 0.1 SSW 7 9 4 5 1011.2 - 0.0
25/03:00am 23.3 28.2 23.0 98 0.2 SSW 2 7 1 4 1011.4 1011.4 0.0
25/02:30am 23.1 28.0 22.4 96 0.5 CALM 0 4 0 2 1011.5 - 0.0
25/02:00am 23.1 27.2 22.3 95 0.5 SSW 4 9 2 5 1011.4 - 0.0
25/01:30am 22.7 27.2 21.5 93 0.8 CALM 0 7 0 4 1011.4 - 0.0
25/01:00am 22.9 27.5 21.7 93 0.8 CALM 0 0 0 0 1011.2 - 0.0
25/12:30am 23.4 28.1 22.0 92 0.9 CALM 0 0 0 0 1011.2 - 0.0
25/12:00am 22.7 26.9 21.0 90 1.1 CALM 0 0 0 0 1011.2 1011.2 0.0
 
Date/Time
CST
Temp
°C
App
Temp
°C
Dew
Point
°C
Rel
Hum
%
Delta-T
°C
Wind Press
QNH
hPa
Press
MSL
hPa
Rain since
9am
mm
Dir  Spd
km/h
Gust
km/h
Spd
kts
Gust
kts
24/11:30pm 22.6 26.7 20.7 89 1.2 CALM 0 0 0 0 1011.0 - 0.0
24/11:00pm 22.9 27.0 20.8 88 1.4 CALM 0 0 0 0 1010.9 - 0.0
24/10:30pm 23.5 27.8 21.2 87 1.5 CALM 0 0 0 0 1010.9 - 0.0
24/10:00pm 24.4 29.1 21.9 86 1.7 CALM 0 0 0 0 1010.6 - 0.0
24/09:30pm 24.7 28.5 21.6 83 2.1 SSW 4 6 2 3 1010.4 - 0.0
24/09:00pm 24.4 26.5 20.9 81 2.3 SSW 11 13 6 7 1010.4 1010.4 0.0
24/08:30pm 24.7 28.7 20.6 78 2.7 CALM 0 0 0 0 1010.1 - 0.0
24/08:00pm 25.7 30.1 21.4 77 2.8 CALM 0 0 0 0 1010.0 - 0.0
24/07:30pm 26.3 30.4 21.5 75 3.2 NNE 2 13 1 7 1009.8 - 0.0
24/07:00pm 27.2 30.1 21.7 72 3.7 W 9 9 5 5 1009.5 - 0.0
24/06:30pm 28.5 31.9 22.0 68 4.4 W 7 9 4 5 1009.3 - 0.0
24/06:00pm 30.1 33.4 22.5 63 5.2 WNW 9 15 5 8 1009.2 1009.2 0.0
24/05:30pm 30.8 35.0 22.4 61 5.7 N 4 9 2 5 1009.2 - 0.0

Other Formats:

Comma delimited format used in spreadsheet applications
http://www.bom.gov.au/fwo/IDD60801/IDD60801.94127.axf

JavaScript Object Notation format (JSON) in row-major order
http://www.bom.gov.au/fwo/IDD60801/IDD60801.94127.json